SLHS weather

Chacobos Airport
Parapeti, Santa Cruz Department, Bolivia

Public forecast

Using degrees Celsius for public forecast. Weather courtesy of forecast.io.

Closest aviation weather report (METAR) to Chacobos Airport

Report is more than 6 hours old.

Closest report is Camiri Airport, 59.7 nm (110.6 km) WSW. Retrieved 2020/04/24 10:00 UTC (3 months ago):

SLCA 241000Z 00000KT 9999 NSC 16/15 Q1012

Closest aviation forecast (TAF) to Chacobos Airport

Closest forecast is El Trompillo Airport, 112.5 nm (208.3 km) NNW. Retrieved 2020/08/06 06:45 UTC (13 minutes ago):

TAF SLET 060300Z 0606/0706 33008KT 9999 NSC TX32/0619Z TN18/0611Z BECMG 0615/0618 35018KT FEW020 BECMG 0623/0701 33008KT NSC BECMG 0703/0705 VRB02KT SCT070